Time;durP1;ratioP1;P1;durP2;ratioP2;P2;SDS_P1;SDS_P2;PMS_P1;PMS_P2;Temp;Humidity;BMP_temperature;BMP_pressure;BME280_temperature;BME280_humidity;BME280_pressure;Samples;Min_cycle;Max_cycle;Signal;HPM_P1;HPM_P2
2023/01/21 00:01:01;;;;;;;21.50;12.40;;;;;;;0.49;86.42;100144.89;103332;1252;108114;-80
2023/01/21 00:03:28;;;;;;;23.10;13.50;;;;;;;0.49;86.51;100151.55;103304;1252;138294;-80
2023/01/21 00:05:57;;;;;;;21.10;13.50;;;;;;;0.49;86.49;100150.19;103723;1251;109636;-80
2023/01/21 00:08:24;;;;;;;21.10;12.90;;;;;;;0.50;86.55;100155.33;103384;1253;108299;-80
2023/01/21 00:10:52;;;;;;;21.10;12.70;;;;;;;0.51;86.57;100151.40;102645;1253;1140551;-79
2023/01/21 00:13:19;;;;;;;22.50;13.40;;;;;;;0.52;86.49;100154.48;103959;1253;108299;-79
2023/01/21 00:15:46;;;;;;;22.50;13.60;;;;;;;0.52;86.50;100145.77;103413;1254;139384;-79
2023/01/21 00:18:13;;;;;;;22.50;13.40;;;;;;;0.53;86.59;100147.98;103796;1251;109886;-79
2023/01/21 00:20:40;;;;;;;19.80;12.90;;;;;;;0.51;86.52;100145.07;103312;1256;106861;-79
2023/01/21 00:23:09;;;;;;;22.70;13.40;;;;;;;0.52;86.63;100139.26;103271;1253;138276;-79
2023/01/21 00:25:36;;;;;;;20.30;13.00;;;;;;;0.52;86.68;100136.86;103590;1253;107639;-79
2023/01/21 00:28:03;;;;;;;21.50;13.50;;;;;;;0.53;86.71;100136.01;103446;1253;139187;-79
2023/01/21 00:30:31;;;;;;;22.30;13.00;;;;;;;0.53;86.65;100139.95;103507;1253;109434;-80
2023/01/21 00:32:58;;;;;;;24.10;13.70;;;;;;;0.52;86.72;100145.59;103637;1255;107755;-79
2023/01/21 00:35:25;;;;;;;21.30;13.30;;;;;;;0.53;86.71;100145.43;102759;1255;1003003;-79
2023/01/21 00:37:53;;;;;;;21.30;13.10;;;;;;;0.53;86.66;100138.41;103392;1253;106538;-79
2023/01/21 00:40:22;;;;;;;21.50;11.70;;;;;;;0.54;86.59;100137.23;103266;1253;138662;-79
2023/01/21 00:42:49;;;;;;;20.90;13.30;;;;;;;0.55;86.59;100130.58;103408;1253;111014;-79
2023/01/21 00:45:17;;;;;;;19.20;10.80;;;;;;;0.56;86.56;100110.23;104063;1256;138768;-80
2023/01/21 00:47:44;;;;;;;17.70;11.50;;;;;;;0.55;86.40;100111.41;102720;1252;1003662;-79
2023/01/21 00:50:12;;;;;;;16.60;10.80;;;;;;;0.55;86.49;100120.14;103537;1256;107024;-79
2023/01/21 00:52:40;;;;;;;15.60;10.40;;;;;;;0.55;86.36;100118.78;103474;1256;138344;-79
2023/01/21 00:55:08;;;;;;;16.80;10.50;;;;;;;0.54;86.34;100111.92;102685;1256;1002959;-81
2023/01/21 00:57:35;;;;;;;15.80;11.20;;;;;;;0.54;86.42;100104.57;103377;1253;138722;-79
2023/01/21 01:00:03;;;;;;;15.60;10.00;;;;;;;0.54;86.38;100099.42;104072;1253;96454;-80
2023/01/21 01:02:30;;;;;;;15.70;9.80;;;;;;;0.55;86.40;100108.00;103081;1251;1003133;-80
2023/01/21 01:04:58;;;;;;;16.40;10.30;;;;;;;0.55;86.34;100101.33;103566;1256;138625;-79
2023/01/21 01:07:25;;;;;;;16.30;10.00;;;;;;;0.55;86.20;100098.23;103698;1253;109535;-79
2023/01/21 01:09:52;;;;;;;14.00;8.80;;;;;;;0.55;86.26;100093.28;102432;1254;1003352;-79
2023/01/21 01:12:19;;;;;;;12.00;8.70;;;;;;;0.57;86.35;100091.24;103553;1253;96990;-79
2023/01/21 01:14:46;;;;;;;12.00;7.90;;;;;;;0.58;86.29;100085.42;103537;1253;107869;-78
2023/01/21 01:17:15;;;;;;;13.30;9.00;;;;;;;0.58;86.27;100087.48;103335;1253;139098;-80
2023/01/21 01:19:42;;;;;;;12.40;8.40;;;;;;;0.59;86.24;100092.96;103313;1256;108779;-79
2023/01/21 01:22:09;;;;;;;12.90;8.20;;;;;;;0.61;86.29;100100.66;103251;1253;138626;-79
2023/01/21 01:24:36;;;;;;;12.80;8.30;;;;;;;0.61;86.09;100101.86;103373;1253;96997;-79
2023/01/21 01:27:03;;;;;;;11.10;7.60;;;;;;;0.61;85.98;100097.92;103201;1253;139199;-78
2023/01/21 01:29:31;;;;;;;11.80;7.60;;;;;;;0.62;86.04;100098.95;102636;1253;1003616;-79
2023/01/21 01:31:58;;;;;;;11.40;7.60;;;;;;;0.63;86.06;100099.64;103670;1253;110642;-79
2023/01/21 01:34:26;;;;;;;11.90;7.90;;;;;;;0.65;86.19;100093.84;103299;1253;139789;-79
2023/01/21 01:36:53;;;;;;;9.70;6.90;;;;;;;0.65;86.18;100080.31;104009;1252;94752;-79
2023/01/21 01:39:20;;;;;;;10.30;7.50;;;;;;;0.62;86.26;100072.95;104183;1251;139292;-79
2023/01/21 01:41:47;;;;;;;10.70;7.10;;;;;;;0.59;86.53;100063.54;102885;1252;1003602;-78
2023/01/21 01:44:45;;;;;;;9.50;6.70;;;;;;;0.57;86.56;100067.64;103849;1252;109034;-80
2023/01/21 01:47:12;;;;;;;10.80;7.50;;;;;;;0.55;86.76;100065.57;103275;1253;136591;-79
2023/01/21 01:49:41;;;;;;;9.60;7.40;;;;;;;0.52;87.09;100062.45;103492;1253;96442;-80
2023/01/21 01:52:11;;;;;;;10.60;7.40;;;;;;;0.49;87.27;100057.48;102496;1254;1003544;-79
2023/01/21 01:54:44;;;;;;;9.30;7.30;;;;;;;0.44;87.65;100054.04;103466;1252;96537;-79
2023/01/21 01:57:16;;;;;;;11.40;6.90;;;;;;;0.39;87.80;100041.52;103384;1256;137866;-78
2023/01/21 01:59:45;;;;;;;10.10;7.30;;;;;;;0.34;88.10;100030.36;103781;1253;106994;-80
2023/01/21 02:02:16;;;;;;;12.00;7.40;;;;;;;0.28;88.28;100020.60;102910;1253;1003383;-79
2023/01/21 02:04:47;;;;;;;10.70;7.60;;;;;;;0.23;88.70;100019.02;103328;1253;138178;-79
2023/01/21 02:07:15;;;;;;;9.20;7.30;;;;;;;0.20;88.99;100011.49;103657;1253;96503;-78
2023/01/21 02:09:43;;;;;;;9.90;7.00;;;;;;;0.17;89.50;100007.01;103305;1253;140352;-78
2023/01/21 02:12:10;;;;;;;10.00;6.90;;;;;;;0.11;89.66;99999.63;103448;1256;106804;-78
2023/01/21 02:14:41;;;;;;;9.50;7.20;;;;;;;0.08;89.93;99996.36;102673;1253;1003000;-80
2023/01/21 02:17:20;;;;;;;9.70;6.90;;;;;;;0.06;90.09;99993.79;103282;1256;137933;-80
2023/01/21 02:20:22;;;;;;;10.90;7.40;;;;;;;0.03;90.42;99992.23;103355;1255;96462;-80
2023/01/21 02:22:59;;;;;;;11.30;7.40;;;;;;;0.01;90.59;99984.88;103356;1257;137999;-81
2023/01/21 02:25:57;;;;;;;9.90;7.00;;;;;;;-0.03;90.78;99979.70;103337;1253;107957;-80
2023/01/21 02:28:54;;;;;;;10.50;7.20;;;;;;;-0.04;91.09;99977.14;103357;1253;138147;-79
2023/01/21 02:31:59;;;;;;;9.60;7.10;;;;;;;-0.08;91.15;99978.48;103250;1259;107490;-80
2023/01/21 02:34:30;;;;;;;9.90;7.30;;;;;;;-0.11;91.14;99980.69;102520;1265;138454;-78
2023/01/21 02:37:06;;;;;;;9.50;6.90;;;;;;;-0.13;91.24;99981.36;102883;1263;111170;-79
2023/01/21 02:39:54;;;;;;;10.50;7.80;;;;;;;-0.15;91.48;99977.42;101928;1264;1003375;-79
2023/01/21 02:42:29;;;;;;;8.30;6.30;;;;;;;-0.14;91.74;99970.93;102839;1265;96207;-78
2023/01/21 02:45:04;;;;;;;9.50;6.80;;;;;;;-0.15;91.72;99976.40;103108;1265;110230;-78
2023/01/21 02:47:37;;;;;;;8.20;6.00;;;;;;;-0.14;91.86;99972.48;101962;1264;1002873;-78
2023/01/21 02:50:12;;;;;;;8.10;5.90;;;;;;;-0.14;91.91;99974.19;102988;1264;108666;-78
2023/01/21 02:52:39;;;;;;;8.10;5.80;;;;;;;-0.11;91.98;99973.52;101944;1265;1003646;-79
2023/01/21 02:55:14;;;;;;;8.80;6.00;;;;;;;-0.12;92.07;99970.95;102871;1264;97003;-79
2023/01/21 02:57:45;;;;;;;7.50;5.90;;;;;;;-0.12;92.39;99967.02;102599;1263;138166;-78
2023/01/21 03:00:18;;;;;;;7.80;5.90;;;;;;;-0.13;92.32;99966.49;102845;1266;96421;-78
2023/01/21 03:03:22;;;;;;;8.00;5.70;;;;;;;-0.13;92.08;99965.30;103472;1264;108568;-78
2023/01/21 03:06:09;;;;;;;8.50;5.80;;;;;;;-0.13;92.29;99962.57;102927;1265;106806;-78
2023/01/21 03:08:46;;;;;;;8.70;5.70;;;;;;;-0.13;92.39;99955.40;102836;1259;98142;-78
2023/01/21 03:11:13;;;;;;;;;;;;;;;-0.14;92.67;99948.39;103658;1253;138861;-79
2023/01/21 03:16:58;;;;;;;10.60;6.00;;;;;;;-0.16;92.88;99943.93;103215;1254;138789;-79
2023/01/21 03:19:32;;;;;;;7.60;5.60;;;;;;;-0.17;92.82;99941.36;103448;1254;108163;-78
2023/01/21 03:22:03;;;;;;;9.00;5.80;;;;;;;-0.17;92.93;99935.04;103265;1253;138032;-78
2023/01/21 03:24:31;;;;;;;7.90;5.60;;;;;;;-0.16;93.16;99920.02;103517;1253;108112;-78
2023/01/21 03:27:00;;;;;;;7.90;5.40;;;;;;;-0.17;93.09;99920.52;103508;1253;96554;-78
2023/01/21 03:29:30;;;;;;;7.90;5.80;;;;;;;-0.19;93.13;99918.59;103547;1252;109610;-78
2023/01/21 03:32:02;;;;;;;9.30;6.00;;;;;;;-0.21;93.28;99912.77;103480;1254;107308;-78
2023/01/21 03:34:33;;;;;;;8.30;5.80;;;;;;;-0.22;93.35;99910.55;103809;1255;137972;-79
2023/01/21 03:37:06;;;;;;;8.60;5.90;;;;;;;-0.23;93.34;99901.15;103368;1253;107738;-79
2023/01/21 03:39:41;;;;;;;7.60;6.00;;;;;;;-0.25;93.54;99893.45;103410;1256;137900;-79
2023/01/21 03:42:09;;;;;;;8.80;6.40;;;;;;;-0.27;93.48;99892.59;103471;1253;110946;-80
2023/01/21 03:44:38;;;;;;;9.60;5.80;;;;;;;-0.29;93.74;99884.89;103371;1256;107606;-80
2023/01/21 03:47:16;;;;;;;8.10;5.90;;;;;;;-0.30;93.96;99891.55;103380;1254;138038;-80
2023/01/21 03:49:48;;;;;;;8.10;6.00;;;;;;;-0.32;93.93;99898.73;102699;1254;1003324;-80
2023/01/21 03:52:15;;;;;;;8.30;5.70;;;;;;;-0.32;93.87;99892.91;103211;1256;138293;-79
2023/01/21 03:54:43;;;;;;;7.30;5.70;;;;;;;-0.33;94.17;99886.59;102824;1256;1003601;-79
2023/01/21 03:57:10;;;;;;;8.60;6.20;;;;;;;-0.34;94.11;99882.66;103360;1254;138245;-79
2023/01/21 03:59:37;;;;;;;7.90;5.90;;;;;;;-0.35;94.17;99881.63;103474;1256;96945;-79
2023/01/21 04:02:04;;;;;;;7.80;5.90;;;;;;;-0.35;94.59;99871.03;103503;1256;109432;-79
2023/01/21 04:04:32;;;;;;;6.80;5.20;;;;;;;-0.38;94.42;99869.80;103535;1256;138749;-78
2023/01/21 04:06:59;;;;;;;6.70;5.20;;;;;;;-0.38;94.45;99863.14;102755;1251;1003773;-79
2023/01/21 04:09:26;;;;;;;7.30;5.50;;;;;;;-0.37;94.37;99853.57;103287;1257;138355;-79
2023/01/21 04:11:53;;;;;;;6.80;5.40;;;;;;;-0.36;94.46;99848.11;103523;1256;96446;-79
2023/01/21 04:14:21;;;;;;;6.10;5.20;;;;;;;-0.37;94.55;99851.36;103512;1256;107988;-79
2023/01/21 04:16:48;;;;;;;7.00;5.20;;;;;;;-0.38;94.65;99857.33;103313;1256;137897;-79
2023/01/21 04:19:15;;;;;;;6.90;5.10;;;;;;;-0.38;94.73;99864.15;103396;1256;109547;-79
2023/01/21 04:21:42;;;;;;;6.30;4.90;;;;;;;-0.39;94.80;99870.30;103207;1254;139768;-80
2023/01/21 04:24:10;;;;;;;6.40;4.80;;;;;;;-0.39;94.74;99870.48;103566;1256;97020;-79
2023/01/21 04:26:37;;;;;;;6.00;4.60;;;;;;;-0.40;95.09;99872.36;103765;1251;106980;-79
2023/01/21 04:29:04;;;;;;;5.90;4.10;;;;;;;-0.40;95.10;99874.06;103383;1254;137823;-80
2023/01/21 04:31:31;;;;;;;5.50;4.30;;;;;;;-0.40;95.06;99882.59;102735;1254;1003466;-80
2023/01/21 04:33:58;;;;;;;5.70;3.80;;;;;;;-0.40;95.10;99885.67;103278;1256;138021;-79
2023/01/21 04:36:26;;;;;;;5.20;4.00;;;;;;;-0.39;95.16;99890.11;103459;1254;96327;-80
2023/01/21 04:38:53;;;;;;;5.20;3.70;;;;;;;-0.40;95.20;99886.53;103432;1253;108179;-80
2023/01/21 04:41:20;;;;;;;4.40;3.50;;;;;;;-0.39;95.18;99894.21;103247;1256;137672;-81
2023/01/21 04:43:51;;;;;;;4.20;3.10;;;;;;;-0.38;95.18;99888.06;102639;1257;1003767;-81
2023/01/21 04:46:18;;;;;;;3.30;2.80;;;;;;;-0.38;95.20;99886.36;103277;1256;138617;-80
2023/01/21 04:48:45;;;;;;;4.50;3.00;;;;;;;-0.38;95.24;99886.70;103389;1257;96433;-81
2023/01/21 04:51:12;;;;;;;4.40;3.00;;;;;;;-0.36;95.32;99895.95;103325;1251;139059;-80
2023/01/21 04:53:40;;;;;;;3.40;2.80;;;;;;;-0.35;95.31;99894.77;103427;1256;96453;-82
2023/01/21 04:56:08;;;;;;;3.80;2.90;;;;;;;-0.34;95.40;99895.13;103465;1256;109797;-81
2023/01/21 04:58:35;;;;;;;3.80;2.80;;;;;;;-0.34;95.30;99890.52;102666;1256;1002969;-81
2023/01/21 05:01:02;;;;;;;3.00;2.30;;;;;;;-0.35;95.39;99894.10;103546;1256;98146;-81
2023/01/21 05:03:29;;;;;;;2.60;2.20;;;;;;;-0.34;95.31;99889.31;103365;1257;138165;-82
2023/01/21 05:05:57;;;;;;;2.40;2.00;;;;;;;-0.34;95.22;99888.46;103393;1254;96435;-83
2023/01/21 05:08:24;;;;;;;3.00;2.70;;;;;;;-0.31;95.65;99884.20;103343;1256;108954;-83
2023/01/21 05:10:51;;;;;;;3.10;2.40;;;;;;;-0.30;95.58;99891.05;103241;1256;137792;-83
2023/01/21 05:13:18;;;;;;;2.10;1.90;;;;;;;-0.30;95.62;99887.27;103381;1255;96479;-83
2023/01/21 05:15:45;;;;;;;1.90;1.70;;;;;;;-0.31;95.50;99891.20;103233;1257;137736;-83
2023/01/21 05:18:13;;;;;;;2.50;1.80;;;;;;;-0.31;95.55;99887.45;102641;1257;1003167;-83
2023/01/21 05:20:40;;;;;;;3.20;1.70;;;;;;;-0.32;95.47;99887.63;103447;1254;109933;-83
2023/01/21 05:23:07;;;;;;;1.80;1.60;;;;;;;-0.31;95.21;99886.94;103253;1257;137735;-83
2023/01/21 05:25:34;;;;;;;1.70;1.60;;;;;;;-0.31;95.53;99886.42;103472;1257;96323;-83
2023/01/21 05:28:01;;;;;;;2.50;1.80;;;;;;;-0.30;95.54;99889.50;103353;1255;138122;-83
2023/01/21 05:30:28;;;;;;;1.80;1.70;;;;;;;-0.32;95.42;99882.83;101889;1257;1003729;-83
2023/01/21 05:32:56;;;;;;;1.70;1.40;;;;;;;-0.32;95.50;99882.84;103463;1259;108990;-82
2023/01/21 05:35:26;;;;;;;1.50;1.30;;;;;;;-0.32;95.84;99883.69;103553;1256;137655;-82
2023/01/21 05:37:53;;;;;;;3.10;1.70;;;;;;;-0.34;95.60;99883.34;103421;1256;96335;-82
2023/01/21 05:40:21;;;;;;;2.00;1.70;;;;;;;-0.34;95.71;99886.93;103327;1254;137683;-82
2023/01/21 05:42:48;;;;;;;1.50;1.40;;;;;;;-0.34;95.79;99882.15;103422;1256;96422;-82
2023/01/21 05:45:16;;;;;;;1.80;1.50;;;;;;;-0.34;95.66;99879.23;103261;1265;137895;-82
2023/01/21 05:47:43;;;;;;;2.80;1.50;;;;;;;-0.35;95.85;99875.98;103379;1254;107438;-82
2023/01/21 05:50:12;;;;;;;3.40;1.40;;;;;;;-0.36;95.84;99878.20;103452;1256;96446;-82
2023/01/21 05:52:40;;;;;;;1.50;1.30;;;;;;;-0.35;95.79;99878.71;104004;1254;137823;-82
2023/01/21 05:55:08;;;;;;;2.00;1.80;;;;;;;-0.35;95.73;99885.23;103489;1262;96417;-81
2023/01/21 05:57:35;;;;;;;1.90;1.50;;;;;;;-0.34;95.70;99887.95;103313;1254;137760;-82
2023/01/21 06:00:02;;;;;;;1.60;1.50;;;;;;;-0.34;95.79;99890.01;103288;1255;108008;-81
2023/01/21 06:02:30;;;;;;;1.40;1.30;;;;;;;-0.33;95.84;99889.84;102605;1256;1002879;-82
2023/01/21 06:04:58;;;;;;;1.40;1.20;;;;;;;-0.32;95.83;99892.40;103338;1254;138161;-81
2023/01/21 06:07:25;;;;;;;1.30;1.20;;;;;;;-0.34;95.78;99892.39;103403;1257;96537;-82
2023/01/21 06:09:52;;;;;;;3.70;1.50;;;;;;;-0.33;95.80;99900.77;103283;1257;137631;-81
2023/01/21 06:12:19;;;;;;;2.00;1.40;;;;;;;-0.32;95.94;99893.93;103385;1251;107717;-82
2023/01/21 06:14:46;;;;;;;1.50;1.30;;;;;;;-0.30;96.10;99901.46;103437;1257;96424;-82
2023/01/21 06:17:13;;;;;;;1.50;1.30;;;;;;;-0.30;96.07;99902.31;103305;1256;138711;-82
2023/01/21 06:19:41;;;;;;;1.30;1.20;;;;;;;-0.29;95.97;99898.05;103435;1257;96465;-82
2023/01/21 06:22:10;;;;;;;1.50;1.10;;;;;;;-0.28;95.90;99899.25;103357;1256;137677;-83
2023/01/21 06:24:37;;;;;;;1.60;1.50;;;;;;;-0.26;95.86;99893.45;103445;1257;106429;-83
2023/01/21 06:27:04;;;;;;;1.10;1.00;;;;;;;-0.24;96.19;99893.80;103416;1257;96989;-83
2023/01/21 06:29:31;;;;;;;1.20;1.10;;;;;;;-0.23;96.09;99898.25;103486;1254;107754;-82
2023/01/21 06:31:59;;;;;;;1.40;1.30;;;;;;;-0.22;95.97;99897.91;103437;1253;96329;-83
2023/01/21 06:34:26;;;;;;;1.10;1.00;;;;;;;-0.21;95.96;99897.73;102469;1254;1003399;-83
2023/01/21 06:36:53;;;;;;;1.30;1.20;;;;;;;-0.20;95.90;99900.98;103408;1254;108310;-82
2023/01/21 06:39:20;;;;;;;2.00;1.30;;;;;;;-0.20;95.90;99896.89;103364;1251;138016;-84
2023/01/21 06:41:47;;;;;;;1.30;1.20;;;;;;;-0.18;96.11;99899.14;102624;1256;1003759;-83
2023/01/21 06:44:15;;;;;;;1.20;1.10;;;;;;;-0.18;96.03;99892.66;103391;1251;96549;-84
2023/01/21 06:46:42;;;;;;;1.20;1.10;;;;;;;-0.17;95.98;99900.52;103270;1254;138568;-83
2023/01/21 06:49:27;;;;;;;1.70;1.10;;;;;;;-0.16;95.91;99898.98;103335;1257;107722;-85
2023/01/21 06:51:55;;;;;;;1.50;1.30;;;;;;;-0.15;96.05;99903.77;103293;1257;138742;-84
2023/01/21 06:54:22;;;;;;;2.30;1.40;;;;;;;-0.13;96.07;99906.52;103717;1257;106419;-85
2023/01/21 06:56:49;;;;;;;1.30;1.20;;;;;;;-0.11;95.90;99908.23;103456;1253;96415;-84
2023/01/21 06:59:16;;;;;;;1.80;1.30;;;;;;;-0.10;96.01;99903.80;103359;1253;138743;-84
2023/01/21 07:01:44;;;;;;;1.30;1.20;;;;;;;-0.09;95.84;99903.98;103431;1254;107466;-84
2023/01/21 07:04:12;;;;;;;1.20;1.10;;;;;;;-0.09;95.84;99900.73;103339;1252;137801;-85
2023/01/21 07:06:40;;;;;;;2.40;1.20;;;;;;;-0.08;95.91;99907.90;103398;1255;108012;-85
2023/01/21 07:09:08;;;;;;;2.10;1.30;;;;;;;-0.08;95.86;99902.44;103400;1254;96449;-84
2023/01/21 07:11:36;;;;;;;2.60;1.40;;;;;;;-0.07;95.92;99904.33;103416;1253;110800;-84
2023/01/21 07:14:03;;;;;;;2.40;1.10;;;;;;;-0.06;95.88;99907.58;103273;1255;108528;-83
2023/01/21 07:16:30;;;;;;;1.50;1.20;;;;;;;-0.04;95.83;99912.36;103285;1257;137859;-84
2023/01/21 07:18:57;;;;;;;1.40;1.30;;;;;;;-0.02;95.91;99916.64;103417;1253;110615;-84
2023/01/21 07:21:25;;;;;;;2.80;1.30;;;;;;;0.01;95.88;99913.42;103278;1254;139795;-84
2023/01/21 07:23:54;;;;;;;1.30;1.20;;;;;;;0.02;95.86;99913.10;103401;1254;109203;-84
2023/01/21 07:26:22;;;;;;;1.90;1.30;;;;;;;0.04;95.86;99913.45;102637;1255;1002965;-84
2023/01/21 07:28:50;;;;;;;1.20;0.90;;;;;;;0.08;96.03;99912.95;103438;1254;138945;-83
2023/01/21 07:31:17;;;;;;;1.10;1.00;;;;;;;0.09;95.93;99901.33;103447;1253;107987;-83
2023/01/21 07:33:44;;;;;;;1.20;1.00;;;;;;;0.11;95.91;99896.89;103301;1251;138364;-84
2023/01/21 07:36:12;;;;;;;1.00;0.90;;;;;;;0.14;95.92;99892.96;103300;1251;110095;-83
2023/01/21 07:38:39;;;;;;;2.10;1.20;;;;;;;0.14;95.72;99895.88;103346;1254;106875;-84
2023/01/21 07:41:06;;;;;;;1.60;1.30;;;;;;;0.16;95.69;99894.17;103280;1254;138611;-83
2023/01/21 07:43:33;;;;;;;1.40;1.30;;;;;;;0.18;95.63;99899.15;103329;1254;107931;-83
2023/01/21 07:46:02;;;;;;;1.20;1.00;;;;;;;0.22;95.59;99898.66;103296;1253;137631;-83
2023/01/21 07:48:29;;;;;;;0.80;0.80;;;;;;;0.22;95.38;99898.31;103340;1257;111107;-84
2023/01/21 07:50:59;;;;;;;1.40;0.90;;;;;;;0.21;95.34;99892.67;102613;1257;1002643;-83
2023/01/21 07:53:29;;;;;;;1.20;1.00;;;;;;;0.25;95.60;99892.52;102365;1256;1003589;-77
2023/01/21 07:55:57;;;;;;;2.40;1.10;;;;;;;0.29;95.54;99891.31;103367;1254;107017;-74
2023/01/21 07:58:24;;;;;;;1.20;1.10;;;;;;;0.30;95.34;99889.27;103392;1256;137654;-79
2023/01/21 08:00:51;;;;;;;1.20;1.10;;;;;;;0.31;95.29;99893.38;103468;1254;110093;-81
2023/01/21 08:03:20;;;;;;;1.20;0.90;;;;;;;0.32;95.11;99897.99;103363;1251;138039;-81
2023/01/21 08:05:47;;;;;;;1.20;1.10;;;;;;;0.35;95.24;99891.50;103486;1254;96985;-78
2023/01/21 08:08:17;;;;;;;1.30;1.20;;;;;;;0.34;95.04;99898.69;103703;1254;108026;-78
2023/01/21 08:10:44;;;;;;;1.00;0.90;;;;;;;0.34;95.00;99890.30;103331;1254;137611;-81
2023/01/21 08:13:11;;;;;;;1.70;1.00;;;;;;;0.32;94.92;99894.23;103461;1254;108970;-84
2023/01/21 08:15:38;;;;;;;1.10;1.00;;;;;;;0.34;94.98;99894.58;103318;1254;137734;-83
2023/01/21 08:18:06;;;;;;;1.30;1.00;;;;;;;0.35;94.99;99900.05;103342;1256;96497;-83
2023/01/21 08:20:33;;;;;;;1.70;1.10;;;;;;;0.39;95.01;99899.73;103338;1254;108050;-83
2023/01/21 08:23:02;;;;;;;1.30;1.00;;;;;;;0.43;95.16;99896.50;103260;1257;137598;-83
2023/01/21 08:25:29;;;;;;;1.70;1.20;;;;;;;0.45;94.96;99902.83;102697;1254;1002773;-84
2023/01/21 08:27:58;;;;;;;1.30;1.00;;;;;;;0.46;94.80;99903.34;103252;1254;138347;-77
2023/01/21 08:30:25;;;;;;;1.50;1.20;;;;;;;0.50;94.90;99911.56;103527;1256;96984;-84
2023/01/21 08:32:52;;;;;;;3.30;1.10;;;;;;;0.52;94.77;99909.18;103517;1254;107738;-81
2023/01/21 08:35:19;;;;;;;1.20;1.10;;;;;;;0.56;94.75;99911.09;103370;1254;137528;-82
2023/01/21 08:37:47;;;;;;;2.20;1.30;;;;;;;0.61;94.69;99914.52;103546;1251;108925;-80
2023/01/21 08:40:15;;;;;;;2.90;1.60;;;;;;;0.64;94.56;99914.01;103272;1254;137672;-81
2023/01/21 08:42:42;;;;;;;2.20;1.60;;;;;;;0.65;94.43;99922.73;103611;1255;96452;-78
2023/01/21 08:45:11;;;;;;;1.40;1.30;;;;;;;0.69;94.55;99926.67;103468;1256;107825;-79
2023/01/21 08:47:41;;;;;;;2.10;1.30;;;;;;;0.71;94.53;99925.99;103488;1257;96562;-83
2023/01/21 08:50:10;;;;;;;2.80;1.70;;;;;;;0.71;94.30;99927.02;103328;1256;110418;-83
2023/01/21 08:52:37;;;;;;;1.60;1.50;;;;;;;0.72;94.30;99932.68;103289;1255;139480;-84
2023/01/21 08:55:04;;;;;;;2.00;1.70;;;;;;;0.75;94.39;99930.98;103606;1254;96432;-85
2023/01/21 08:57:31;;;;;;;3.00;1.90;;;;;;;0.79;94.32;99932.36;103478;1254;137703;-82
2023/01/21 08:59:59;;;;;;;1.90;1.70;;;;;;;0.82;94.24;99934.24;103569;1254;96562;-84
2023/01/21 09:02:26;;;;;;;2.10;1.90;;;;;;;0.85;94.26;99929.80;103439;1257;110881;-83
2023/01/21 09:04:53;;;;;;;2.30;1.90;;;;;;;0.89;94.04;99930.15;103259;1254;138791;-82
2023/01/21 09:07:20;;;;;;;3.20;2.20;;;;;;;0.93;94.08;99932.73;103340;1254;96504;-82
2023/01/21 09:09:49;;;;;;;2.30;1.90;;;;;;;0.98;94.17;99933.09;103324;1254;137659;-83
2023/01/21 09:12:16;;;;;;;3.10;1.80;;;;;;;1.01;93.98;99934.11;103356;1256;96464;-82
2023/01/21 09:14:43;;;;;;;4.40;1.90;;;;;;;1.06;93.98;99940.10;103359;1256;110800;-83
2023/01/21 09:17:10;;;;;;;4.40;2.20;;;;;;;1.08;93.55;99936.35;103298;1251;138721;-82
2023/01/21 09:19:38;;;;;;;2.50;2.10;;;;;;;1.07;93.55;99938.05;103499;1254;96325;-83
2023/01/21 09:22:06;;;;;;;3.00;1.90;;;;;;;1.07;93.24;99940.29;103358;1254;137600;-84
2023/01/21 09:24:33;;;;;;;4.40;2.10;;;;;;;1.06;93.35;99940.10;103662;1253;96530;-73
2023/01/21 09:27:00;;;;;;;2.40;2.00;;;;;;;1.05;93.23;99940.09;102633;1257;1003600;-79
2023/01/21 09:29:28;;;;;;;3.60;2.20;;;;;;;1.00;92.98;99944.38;103203;1257;137734;-82
2023/01/21 09:31:55;;;;;;;3.00;2.10;;;;;;;0.98;93.22;99947.63;103439;1254;96599;-81
2023/01/21 09:34:22;;;;;;;2.50;2.10;;;;;;;0.98;93.29;99953.27;103816;1255;137602;-83
2023/01/21 09:36:49;;;;;;;2.40;2.00;;;;;;;0.97;93.37;99954.30;104818;1254;95751;-83
2023/01/21 09:39:17;;;;;;;2.50;2.00;;;;;;;0.97;93.29;99950.02;104085;1251;137955;-84
2023/01/21 09:41:49;;;;;;;4.10;2.20;;;;;;;0.94;93.24;99951.40;103328;1251;107760;-83
2023/01/21 09:44:21;;;;;;;3.10;1.90;;;;;;;0.92;93.22;99959.44;103280;1251;96344;-78
2023/01/21 09:46:52;;;;;;;3.50;2.40;;;;;;;0.90;93.21;99960.80;103288;1254;137452;-81
2023/01/21 09:49:24;;;;;;;3.70;2.30;;;;;;;0.90;93.34;99963.19;103325;1256;96462;-82
2023/01/21 09:51:58;;;;;;;3.10;2.30;;;;;;;0.90;93.28;99967.14;103377;1256;138621;-79
2023/01/21 09:54:29;;;;;;;2.60;2.10;;;;;;;0.90;93.28;99969.36;103712;1256;108836;-81
2023/01/21 09:57:34;;;;;;;5.50;2.50;;;;;;;0.89;93.37;99970.55;103422;1256;97051;-81
2023/01/21 10:00:25;;;;;;;6.60;2.60;;;;;;;0.87;93.21;99967.27;103391;1254;108022;-79
2023/01/21 10:03:00;;;;;;;8.70;3.40;;;;;;;0.85;93.43;99972.23;103396;1253;96575;-81
2023/01/21 10:06:12;;;;;;;4.20;2.90;;;;;;;0.86;93.59;99968.14;103648;1251;138436;-77
2023/01/21 10:08:56;;;;;;;5.30;2.80;;;;;;;0.85;93.61;99971.38;103356;1254;106514;-81
2023/01/21 10:11:38;;;;;;;4.00;2.40;;;;;;;0.85;93.63;99972.58;103268;1252;137848;-78
2023/01/21 10:14:20;;;;;;;4.10;2.90;;;;;;;0.86;93.76;99973.27;103364;1256;106983;-82
2023/01/21 10:16:56;;;;;;;5.30;3.30;;;;;;;0.88;93.78;99974.48;103181;1253;137770;-81
2023/01/21 10:19:28;;;;;;;4.90;2.90;;;;;;;0.91;93.89;99974.84;103425;1253;109608;-82
2023/01/21 10:22:00;;;;;;;6.30;3.60;;;;;;;0.94;93.80;99980.50;103127;1257;138003;-82
2023/01/21 10:24:35;;;;;;;14.60;6.50;;;;;;;0.95;93.89;99978.61;103376;1256;96475;-81
2023/01/21 10:27:02;;;;;;;7.90;3.50;;;;;;;0.96;93.78;99982.21;103355;1254;107168;-82
2023/01/21 10:29:34;;;;;;;6.00;2.80;;;;;;;0.94;93.62;99981.52;103288;1251;137582;-82
2023/01/21 10:32:06;;;;;;;6.80;3.50;;;;;;;0.93;93.67;99982.73;104296;1253;110277;-81
2023/01/21 10:34:40;;;;;;;7.60;3.50;;;;;;;0.94;93.72;99983.23;103618;1251;139232;-80
2023/01/21 10:37:17;;;;;;;9.70;3.70;;;;;;;0.92;93.62;99981.69;103563;1254;96431;-81
2023/01/21 10:39:51;;;;;;;4.60;3.60;;;;;;;0.93;93.76;99989.23;103320;1253;138044;-82
2023/01/21 10:42:35;;;;;;;8.50;3.90;;;;;;;0.96;93.79;99993.17;102754;1252;1002912;-80
2023/01/21 10:45:14;;;;;;;7.90;4.00;;;;;;;0.98;93.89;99992.31;103449;1257;110490;-80
2023/01/21 10:47:50;;;;;;;6.80;3.60;;;;;;;1.00;94.01;99995.73;103399;1251;107934;-80
2023/01/21 10:50:31;;;;;;;7.20;3.90;;;;;;;1.01;93.82;99999.34;103575;1251;96459;-80
2023/01/21 10:53:06;;;;;;;5.80;4.20;;;;;;;1.00;93.76;100003.61;103266;1253;137444;-80
2023/01/21 10:55:46;;;;;;;6.90;4.30;;;;;;;0.99;93.79;100009.77;103440;1251;96364;-81
2023/01/21 10:58:24;;;;;;;6.40;4.20;;;;;;;1.00;93.86;100010.11;103349;1253;137612;-80
2023/01/21 11:00:55;;;;;;;8.70;4.30;;;;;;;1.00;93.87;100008.05;103421;1252;107734;-80
2023/01/21 11:03:34;;;;;;;8.80;5.20;;;;;;;0.98;94.00;100010.45;103367;1256;138428;-80
2023/01/21 11:06:03;;;;;;;10.10;5.00;;;;;;;0.97;93.98;100014.21;103448;1251;108833;-79
2023/01/21 11:08:31;;;;;;;9.10;5.20;;;;;;;0.96;93.99;100013.02;103484;1251;96439;-80
2023/01/21 11:10:59;;;;;;;9.40;4.90;;;;;;;0.97;94.12;100015.77;103355;1252;137768;-80
2023/01/21 11:13:26;;;;;;;8.00;4.60;;;;;;;0.98;94.25;100022.95;103452;1256;108234;-80
2023/01/21 11:15:58;;;;;;;10.20;5.70;;;;;;;0.97;94.22;100025.70;102649;1251;1003081;-79
2023/01/21 11:18:31;;;;;;;7.30;4.90;;;;;;;0.96;94.23;100026.55;102679;1256;1003202;-82
2023/01/21 11:21:02;;;;;;;9.00;5.10;;;;;;;0.95;94.19;100027.05;103701;1252;96466;-79
2023/01/21 11:23:33;;;;;;;9.30;6.10;;;;;;;0.93;94.23;100029.80;103308;1252;137721;-80
2023/01/21 11:26:06;;;;;;;10.30;5.90;;;;;;;0.92;94.27;100029.96;103300;1256;107128;-80
2023/01/21 11:28:36;;;;;;;11.20;6.10;;;;;;;0.90;94.51;100026.54;103071;1256;1003096;-83
2023/01/21 11:31:15;;;;;;;10.80;6.50;;;;;;;0.91;94.54;100025.00;103386;1256;107118;-81
2023/01/21 11:33:44;;;;;;;11.20;6.10;;;;;;;0.92;94.73;100030.30;102514;1255;1003418;-82
2023/01/21 11:36:19;;;;;;;12.70;7.10;;;;;;;0.92;94.84;100028.09;103481;1252;110347;-81